sensor_id;sensor_type;location;lat;lon;timestamp;temperature;humidity
28159;DHT22;15447;50.828;4.406;2023-12-22T06:31:02;9.50;99.90
28159;DHT22;15447;50.828;4.406;2023-12-22T06:33:29;9.50;99.90
28159;DHT22;15447;50.828;4.406;2023-12-22T06:35:57;9.40;99.90
28159;DHT22;15447;50.828;4.406;2023-12-22T06:38:23;9.50;99.90
28159;DHT22;15447;50.828;4.406;2023-12-22T06:40:49;9.50;99.90
28159;DHT22;15447;50.828;4.406;2023-12-22T06:43:15;9.50;99.90
28159;DHT22;15447;50.828;4.406;2023-12-22T06:45:41;9.50;99.90
28159;DHT22;15447;50.828;4.406;2023-12-22T06:48:07;9.50;99.90
28159;DHT22;15447;50.828;4.406;2023-12-22T06:50:38;9.60;99.90
28159;DHT22;15447;50.828;4.406;2023-12-22T06:53:04;9.60;99.90
28159;DHT22;15447;50.828;4.406;2023-12-22T06:55:30;9.60;99.90
28159;DHT22;15447;50.828;4.406;2023-12-22T06:57:59;9.60;99.90
28159;DHT22;15447;50.828;4.406;2023-12-22T07:00:25;9.60;99.90
28159;DHT22;15447;50.828;4.406;2023-12-22T07:02:50;9.60;99.90
28159;DHT22;15447;50.828;4.406;2023-12-22T07:05:32;9.60;99.90
28159;DHT22;15447;50.828;4.406;2023-12-22T07:07:58;9.70;99.90
28159;DHT22;15447;50.828;4.406;2023-12-22T07:10:24;9.70;99.90
28159;DHT22;15447;50.828;4.406;2023-12-22T07:12:54;9.70;99.90
28159;DHT22;15447;50.828;4.406;2023-12-22T07:15:20;9.70;99.90
28159;DHT22;15447;50.828;4.406;2023-12-22T07:17:45;9.70;99.90
28159;DHT22;15447;50.828;4.406;2023-12-22T07:20:14;9.70;99.90
28159;DHT22;15447;50.828;4.406;2023-12-22T07:23:10;9.80;99.90
28159;DHT22;15447;50.828;4.406;2023-12-22T07:26:14;9.70;99.90
28159;DHT22;15447;50.828;4.406;2023-12-22T07:28:48;9.70;99.90
28159;DHT22;15447;50.828;4.406;2023-12-22T07:31:16;9.70;99.90
28159;DHT22;15447;50.828;4.406;2023-12-22T07:37:28;9.80;99.90
28159;DHT22;15447;50.828;4.406;2023-12-22T07:40:16;9.80;99.90
28159;DHT22;15447;50.828;4.406;2023-12-22T07:46:37;9.80;99.90
28159;DHT22;15447;50.828;4.406;2023-12-22T07:49:14;9.80;99.90
28159;DHT22;15447;50.828;4.406;2023-12-22T07:51:40;9.80;99.90
28159;DHT22;15447;50.828;4.406;2023-12-22T07:54:06;9.80;99.90
28159;DHT22;15447;50.828;4.406;2023-12-22T07:56:35;9.80;99.90
28159;DHT22;15447;50.828;4.406;2023-12-22T07:59:01;9.80;99.90
28159;DHT22;15447;50.828;4.406;2023-12-22T08:01:28;9.80;99.90
28159;DHT22;15447;50.828;4.406;2023-12-22T08:03:53;9.80;99.90
28159;DHT22;15447;50.828;4.406;2023-12-22T08:06:25;9.80;99.90
28159;DHT22;15447;50.828;4.406;2023-12-22T08:08:51;9.90;99.90
28159;DHT22;15447;50.828;4.406;2023-12-22T08:11:16;9.90;99.90
28159;DHT22;15447;50.828;4.406;2023-12-22T08:13:42;9.90;99.90
28159;DHT22;15447;50.828;4.406;2023-12-22T08:16:13;9.90;99.90
28159;DHT22;15447;50.828;4.406;2023-12-22T08:18:39;9.90;99.90
28159;DHT22;15447;50.828;4.406;2023-12-22T08:21:04;9.80;99.90
28159;DHT22;15447;50.828;4.406;2023-12-22T08:23:31;9.80;99.90
28159;DHT22;15447;50.828;4.406;2023-12-22T08:25:57;9.80;99.90
28159;DHT22;15447;50.828;4.406;2023-12-22T08:28:23;10.00;99.90
28159;DHT22;15447;50.828;4.406;2023-12-22T08:30:52;10.10;99.90
